Time;durP1;ratioP1;P1;durP2;ratioP2;P2;SDS_P1;SDS_P2;PMS_P1;PMS_P2;Temp;Humidity;BMP_temperature;BMP_pressure;BME280_temperature;BME280_humidity;BME280_pressure;Samples;Min_cycle;Max_cycle;Signal;HPM_P1;HPM_P2
2021/12/28 00:01:46;;;;;;;13.23;5.45;;;;;;;;;;5082326;28;20044;-66
2021/12/28 00:04:13;;;;;;;10.98;3.90;;;;;;;;;;5081203;28;20204;-67
2021/12/28 00:06:39;;;;;;;11.98;5.05;;;;;;;;;;5079798;28;20140;-67
2021/12/28 00:09:06;;;;;;;17.77;5.07;;;;;;;;;;5082053;28;20128;-67
2021/12/28 00:11:32;;;;;;;11.90;4.22;;;;;;;;;;5086741;28;20344;-66
2021/12/28 00:14:01;;;;;;;15.25;4.38;;;;;;;;;;5088562;28;20134;-67
2021/12/28 00:17:59;;;;;;;13.02;5.22;;;;;;;;;;5079357;28;20504;-67
2021/12/28 00:19:23;;;;;;;15.38;4.65;;;;;;;;;;5076899;28;20598;-67
2021/12/28 00:21:50;;;;;;;13.23;5.00;;;;;;;;;;5079748;28;20163;-67
2021/12/28 00:24:16;;;;;;;13.65;4.13;;;;;;;;;;5078104;28;20115;-67
2021/12/28 00:26:44;;;;;;;9.85;4.28;;;;;;;;;;5076262;28;20508;-67
2021/12/28 00:29:10;;;;;;;15.70;5.35;;;;;;;;;;5082105;28;20123;-67
2021/12/28 00:31:37;;;;;;;13.13;5.05;;;;;;;;;;5077562;28;20040;-67
2021/12/28 00:34:05;;;;;;;16.15;5.90;;;;;;;;;;5080246;28;20058;-67
2021/12/28 00:36:31;;;;;;;13.53;5.53;;;;;;;;;;5083270;28;20037;-66
2021/12/28 00:38:59;;;;;;;15.70;5.35;;;;;;;;;;5067550;28;20163;-67
2021/12/28 00:41:32;;;;;;;13.20;4.97;;;;;;;;;;5082511;28;20140;-66
2021/12/28 00:43:59;;;;;;;15.47;5.40;;;;;;;;;;5085168;28;20091;-67
2021/12/28 00:46:25;;;;;;;8.45;3.83;;;;;;;;;;5085221;28;20050;-67
2021/12/28 00:48:58;;;;;;;10.75;4.28;;;;;;;;;;5077665;28;20511;-66
2021/12/28 00:51:25;;;;;;;15.00;5.68;;;;;;;;;;5078989;28;20126;-66
2021/12/28 00:53:51;;;;;;;14.70;4.97;;;;;;;;;;5076001;28;20056;-66
2021/12/28 00:56:18;;;;;;;16.87;4.97;;;;;;;;;;5080372;28;20143;-66
2021/12/28 00:58:44;;;;;;;12.97;4.63;;;;;;;;;;5083026;28;20332;-66
2021/12/28 01:01:10;;;;;;;15.00;6.13;;;;;;;;;;5077043;28;20095;-68
2021/12/28 01:03:38;;;;;;;14.55;5.45;;;;;;;;;;5080146;28;20072;-66
2021/12/28 01:06:05;;;;;;;13.73;4.43;;;;;;;;;;5078918;28;20523;-66
2021/12/28 01:08:31;;;;;;;;;;;;;;;;;;5082274;28;20159;-66
2021/12/28 01:11:05;;;;;;;19.67;6.32;;;;;;;;;;5064969;28;20020;-66
2021/12/28 01:13:31;;;;;;;13.80;5.30;;;;;;;;;;5085076;28;20486;-66
2021/12/28 01:15:58;;;;;;;11.40;5.30;;;;;;;;;;5082772;28;20083;-66
2021/12/28 01:18:25;;;;;;;11.95;4.30;;;;;;;;;;5083448;28;20138;-66
2021/12/28 01:20:51;;;;;;;10.50;5.05;;;;;;;;;;5076146;28;20502;-66
2021/12/28 01:23:18;;;;;;;12.27;4.63;;;;;;;;;;5074444;28;20079;-66
2021/12/28 01:25:45;;;;;;;15.00;6.22;;;;;;;;;;5078703;28;20145;-66
2021/12/28 01:28:12;;;;;;;13.15;4.88;;;;;;;;;;5078910;28;20139;-66
2021/12/28 01:30:41;;;;;;;8.38;3.90;;;;;;;;;;5081966;28;20083;-66
2021/12/28 01:33:08;;;;;;;15.45;6.00;;;;;;;;;;5074110;28;20143;-66
2021/12/28 01:35:35;;;;;;;15.77;6.43;;;;;;;;;;5076739;28;20123;-66
2021/12/28 01:38:01;;;;;;;23.65;6.75;;;;;;;;;;5079685;28;20127;-66
2021/12/28 01:40:33;;;;;;;13.63;5.10;;;;;;;;;;5057313;28;20156;-66
2021/12/28 01:43:02;;;;;;;17.50;5.55;;;;;;;;;;5060792;28;20087;-66
2021/12/28 01:45:49;;;;;;;15.43;5.70;;;;;;;;;;5063761;28;20120;-66
2021/12/28 01:48:26;;;;;;;17.42;5.78;;;;;;;;;;5063376;28;20052;-66
2021/12/28 01:50:55;;;;;;;16.25;6.90;;;;;;;;;;5059615;28;20079;-66
2021/12/28 01:53:22;;;;;;;18.17;5.80;;;;;;;;;;5055429;27;20084;-65
2021/12/28 01:55:48;;;;;;;;;;;;;;;;;;5057645;28;20131;-66
2021/12/28 01:58:15;;;;;;;18.42;7.32;;;;;;;;;;5060029;28;19974;-66
2021/12/28 02:00:43;;;;;;;14.13;5.35;;;;;;;;;;5054086;28;20135;-66
2021/12/28 02:03:11;;;;;;;17.88;6.85;;;;;;;;;;5055681;28;20053;-66
2021/12/28 02:05:38;;;;;;;14.93;6.65;;;;;;;;;;5060393;28;20164;-66
2021/12/28 02:08:05;;;;;;;10.43;5.13;;;;;;;;;;5051910;28;20049;-66
2021/12/28 02:10:31;;;;;;;;;;;;;;;;;;5061003;28;20299;-66
2021/12/28 02:12:58;;;;;;;20.88;7.03;;;;;;;;;;5056570;28;19967;-66
2021/12/28 02:15:24;;;;;;;15.98;6.80;;;;;;;;;;5059228;28;20078;-66
2021/12/28 02:17:57;;;;;;;15.57;6.97;;;;;;;;;;5057410;28;20049;-66
2021/12/28 02:20:24;;;;;;;18.33;7.32;;;;;;;;;;5059291;28;20495;-66
2021/12/28 02:22:50;;;;;;;20.42;7.28;;;;;;;;;;5059801;28;20072;-66
2021/12/28 02:25:19;;;;;;;14.93;7.00;;;;;;;;;;5056420;28;20068;-66
2021/12/28 02:27:46;;;;;;;19.02;7.55;;;;;;;;;;5058709;28;20440;-66
2021/12/28 02:30:14;;;;;;;19.23;7.65;;;;;;;;;;5058980;28;20073;-66
2021/12/28 02:32:42;;;;;;;20.15;7.40;;;;;;;;;;5058033;28;20084;-66
2021/12/28 02:35:10;;;;;;;22.80;7.57;;;;;;;;;;5057960;28;20041;-66
2021/12/28 02:37:37;;;;;;;20.25;8.48;;;;;;;;;;5063523;28;20040;-66
2021/12/28 02:40:04;;;;;;;;;;;;;;;;;;5056659;28;20080;-66
2021/12/28 02:42:31;;;;;;;22.27;7.63;;;;;;;;;;5061262;28;19956;-66
2021/12/28 02:45:07;;;;;;;15.97;6.40;;;;;;;;;;5058143;28;20048;-66
2021/12/28 02:47:42;;;;;;;22.35;7.50;;;;;;;;;;5062112;28;20055;-66
2021/12/28 02:50:10;;;;;;;20.77;8.05;;;;;;;;;;5061008;28;20135;-66
2021/12/28 02:52:37;;;;;;;20.52;8.15;;;;;;;;;;5057637;28;20477;-66
2021/12/28 02:55:13;;;;;;;19.98;7.85;;;;;;;;;;5059287;28;20080;-66
2021/12/28 02:57:52;;;;;;;22.88;8.63;;;;;;;;;;5056489;28;20071;-66
2021/12/28 03:00:28;;;;;;;23.52;8.80;;;;;;;;;;5058912;28;20128;-66
2021/12/28 03:02:55;;;;;;;14.98;7.28;;;;;;;;;;5061734;28;20052;-66
2021/12/28 03:05:22;;;;;;;20.35;8.77;;;;;;;;;;5041185;28;20044;-66
2021/12/28 03:07:48;;;;;;;28.80;8.03;;;;;;;;;;5059678;28;20140;-66
2021/12/28 03:10:15;;;;;;;20.13;8.55;;;;;;;;;;5056208;28;20051;-66
2021/12/28 03:12:44;;;;;;;18.85;8.38;;;;;;;;;;5056374;28;20124;-66
2021/12/28 03:15:11;;;;;;;24.02;9.43;;;;;;;;;;5052645;28;20076;-66
2021/12/28 03:17:38;;;;;;;21.98;9.00;;;;;;;;;;5055667;28;20127;-66
2021/12/28 03:20:05;;;;;;;;;;;;;;;;;;5061519;28;20124;-66
2021/12/28 03:22:35;;;;;;;24.67;9.93;;;;;;;;;;5062148;28;19999;-66
2021/12/28 03:25:01;;;;;;;21.70;8.85;;;;;;;;;;5058643;28;20107;-66
2021/12/28 03:27:29;;;;;;;28.88;8.77;;;;;;;;;;5062701;28;20044;-66
2021/12/28 03:29:55;;;;;;;23.48;9.02;;;;;;;;;;5063205;28;20094;-66
2021/12/28 03:32:22;;;;;;;21.88;9.20;;;;;;;;;;5069035;28;20040;-66
2021/12/28 03:34:55;;;;;;;25.08;9.68;;;;;;;;;;5061108;28;20575;-66
2021/12/28 03:37:24;;;;;;;24.15;8.98;;;;;;;;;;5066594;28;20147;-66
2021/12/28 03:39:50;;;;;;;26.45;9.02;;;;;;;;;;5057091;28;20131;-66
2021/12/28 03:42:23;;;;;;;20.15;8.95;;;;;;;;;;5058454;28;20133;-66
2021/12/28 03:44:50;;;;;;;24.55;9.57;;;;;;;;;;5062492;28;20080;-66
2021/12/28 03:47:16;;;;;;;29.42;9.15;;;;;;;;;;5062668;28;20044;-67
2021/12/28 03:49:44;;;;;;;23.85;10.07;;;;;;;;;;5052468;28;20081;-66
2021/12/28 03:52:11;;;;;;;22.83;9.48;;;;;;;;;;5059166;28;20455;-66
2021/12/28 03:54:38;;;;;;;22.90;10.23;;;;;;;;;;5060587;28;20040;-66
2021/12/28 03:57:05;;;;;;;25.13;9.70;;;;;;;;;;5060737;28;20136;-66
2021/12/28 03:59:32;;;;;;;17.90;7.38;;;;;;;;;;5051275;28;20544;-66
2021/12/28 04:01:58;;;;;;;19.48;9.20;;;;;;;;;;5051389;28;20077;-66
2021/12/28 04:04:25;;;;;;;24.13;9.75;;;;;;;;;;5049951;28;20055;-66
2021/12/28 04:06:51;;;;;;;28.20;10.40;;;;;;;;;;5057281;28;20049;-66
2021/12/28 04:09:23;;;;;;;32.33;11.27;;;;;;;;;;5060431;28;20135;-66
2021/12/28 04:11:53;;;;;;;24.98;10.10;;;;;;;;;;5057373;28;20087;-66
2021/12/28 04:14:19;;;;;;;27.05;11.02;;;;;;;;;;5067310;28;20135;-66
2021/12/28 04:16:45;;;;;;;32.85;11.52;;;;;;;;;;5063618;28;20064;-66
2021/12/28 04:19:13;;;;;;;28.98;11.98;;;;;;;;;;5062907;28;20139;-66
2021/12/28 04:21:39;;;;;;;20.40;8.73;;;;;;;;;;5057828;28;20056;-66
2021/12/28 04:24:06;;;;;;;27.83;11.25;;;;;;;;;;5062970;28;20251;-66
2021/12/28 04:26:39;;;;;;;28.73;11.45;;;;;;;;;;5059146;28;20131;-66
2021/12/28 04:29:06;;;;;;;32.53;11.05;;;;;;;;;;5054467;28;20157;-66
2021/12/28 04:31:32;;;;;;;28.65;11.95;;;;;;;;;;5054442;28;20079;-66
2021/12/28 04:34:01;;;;;;;28.55;11.25;;;;;;;;;;5058524;28;20047;-66
2021/12/28 04:36:28;;;;;;;28.63;11.00;;;;;;;;;;5059102;28;20615;-66
2021/12/28 04:38:54;;;;;;;29.02;11.32;;;;;;;;;;5063284;28;20052;-66
2021/12/28 04:41:21;;;;;;;35.87;12.50;;;;;;;;;;5060192;28;20674;-66
2021/12/28 04:43:49;;;;;;;21.67;8.13;;;;;;;;;;5059282;28;20370;-66
2021/12/28 04:46:15;;;;;;;28.75;10.95;;;;;;;;;;5062509;28;20055;-66
2021/12/28 04:48:44;;;;;;;29.65;11.45;;;;;;;;;;5061035;28;20047;-66
2021/12/28 04:51:11;;;;;;;27.58;10.90;;;;;;;;;;5063836;28;20080;-66
2021/12/28 04:53:37;;;;;;;28.23;10.57;;;;;;;;;;5058084;28;20127;-66
2021/12/28 04:56:13;;;;;;;24.92;10.93;;;;;;;;;;5062573;28;20657;-66
2021/12/28 04:58:39;;;;;;;26.67;11.05;;;;;;;;;;5056193;28;20078;-66
2021/12/28 05:01:06;;;;;;;24.42;10.85;;;;;;;;;;5056835;28;20083;-66
2021/12/28 05:03:33;;;;;;;26.13;11.30;;;;;;;;;;5064437;28;20055;-66
2021/12/28 05:05:59;;;;;;;29.67;11.23;;;;;;;;;;5060980;28;20053;-66
2021/12/28 05:08:25;;;;;;;30.85;11.10;;;;;;;;;;5064025;28;20711;-66
2021/12/28 05:10:59;;;;;;;26.42;11.52;;;;;;;;;;5055272;28;20131;-66
2021/12/28 05:13:25;;;;;;;29.33;10.97;;;;;;;;;;5059869;28;20082;-66
2021/12/28 05:15:53;;;;;;;26.85;10.63;;;;;;;;;;5066222;28;20106;-66
2021/12/28 05:18:20;;;;;;;27.05;11.45;;;;;;;;;;5060301;28;20084;-65
2021/12/28 05:20:46;;;;;;;28.85;10.50;;;;;;;;;;5062280;28;20073;-68
2021/12/28 05:23:13;;;;;;;23.75;9.80;;;;;;;;;;5064399;28;20403;-68
2021/12/28 05:25:42;;;;;;;28.60;10.80;;;;;;;;;;5060414;28;20580;-66
2021/12/28 05:28:09;;;;;;;25.98;10.23;;;;;;;;;;5060129;28;20131;-65
2021/12/28 05:30:35;;;;;;;30.30;11.65;;;;;;;;;;5057702;28;20135;-65
2021/12/28 05:33:02;;;;;;;24.17;11.13;;;;;;;;;;5055414;28;20083;-65
2021/12/28 05:35:28;;;;;;;30.17;12.32;;;;;;;;;;5061332;28;20360;-68
2021/12/28 05:37:55;;;;;;;26.95;12.30;;;;;;;;;;5056880;28;20076;-68
2021/12/28 05:40:22;;;;;;;28.88;11.70;;;;;;;;;;5058670;28;20136;-67
2021/12/28 05:42:48;;;;;;;30.30;11.85;;;;;;;;;;5063847;28;20083;-68
2021/12/28 05:45:18;;;;;;;27.15;11.85;;;;;;;;;;5061689;28;20144;-68
2021/12/28 05:47:45;;;;;;;28.45;12.75;;;;;;;;;;5064208;28;20051;-68
2021/12/28 05:50:11;;;;;;;27.98;11.45;;;;;;;;;;5056574;28;20127;-68
2021/12/28 05:52:38;;;;;;;25.52;11.70;;;;;;;;;;5057832;28;20072;-68
2021/12/28 05:55:06;;;;;;;30.27;11.80;;;;;;;;;;5061777;28;20562;-68
2021/12/28 05:57:33;;;;;;;25.65;13.18;;;;;;;;;;5059763;28;20072;-68
2021/12/28 05:59:59;;;;;;;35.28;13.60;;;;;;;;;;5061016;28;20484;-68
2021/12/28 06:02:26;;;;;;;36.53;16.10;;;;;;;;;;5060709;28;20072;-68
2021/12/28 06:04:52;;;;;;;35.60;14.23;;;;;;;;;;5056599;28;20801;-68
2021/12/28 06:07:19;;;;;;;33.40;13.95;;;;;;;;;;5059435;28;20156;-68
2021/12/28 06:09:45;;;;;;;27.07;11.43;;;;;;;;;;5062294;28;20143;-68
2021/12/28 06:12:11;;;;;;;32.33;14.02;;;;;;;;;;5061678;28;20094;-65
2021/12/28 06:14:38;;;;;;;36.97;14.73;;;;;;;;;;5058486;28;20477;-66
2021/12/28 06:17:05;;;;;;;20.63;10.77;;;;;;;;;;5059145;28;20603;-66
2021/12/28 06:19:31;;;;;;;28.08;10.30;;;;;;;;;;5058645;28;20180;-66
2021/12/28 06:21:57;;;;;;;30.23;13.75;;;;;;;;;;5051163;28;20044;-66
2021/12/28 06:24:30;;;;;;;29.00;12.90;;;;;;;;;;5057515;28;20080;-66
2021/12/28 06:26:57;;;;;;;28.45;12.95;;;;;;;;;;5049113;28;20084;-65
2021/12/28 06:29:23;;;;;;;28.90;13.23;;;;;;;;;;5055810;28;20135;-65
2021/12/28 06:31:50;;;;;;;25.67;13.60;;;;;;;;;;5056743;28;20072;-66
2021/12/28 06:34:16;;;;;;;30.50;13.20;;;;;;;;;;5054738;28;20072;-65
2021/12/28 06:36:43;;;;;;;28.85;13.02;;;;;;;;;;5056444;28;20208;-66
2021/12/28 06:39:11;;;;;;;30.55;13.25;;;;;;;;;;5056493;28;20048;-65
2021/12/28 06:41:38;;;;;;;31.75;13.55;;;;;;;;;;5061778;28;20048;-66
2021/12/28 06:44:06;;;;;;;31.98;14.18;;;;;;;;;;5059203;28;20080;-65
2021/12/28 06:46:40;;;;;;;29.35;13.75;;;;;;;;;;5059155;28;20080;-66
2021/12/28 06:49:06;;;;;;;32.17;14.50;;;;;;;;;;5057847;28;20052;-66
2021/12/28 06:51:47;;;;;;;30.33;13.70;;;;;;;;;;5053304;28;20386;-66
2021/12/28 06:54:14;;;;;;;27.55;12.63;;;;;;;;;;5062496;28;20156;-65
2021/12/28 06:56:41;;;;;;;25.98;12.10;;;;;;;;;;5056700;28;20073;-66
2021/12/28 06:59:07;;;;;;;28.15;11.88;;;;;;;;;;5063617;28;20497;-66
2021/12/28 07:01:34;;;;;;;24.90;9.75;;;;;;;;;;5060220;28;20083;-65
2021/12/28 07:04:01;;;;;;;36.15;14.82;;;;;;;;;;5060014;28;20076;-65
2021/12/28 07:06:28;;;;;;;30.80;12.68;;;;;;;;;;5067546;28;20075;-66
2021/12/28 07:08:56;;;;;;;29.75;13.20;;;;;;;;;;5066665;28;20048;-65
2021/12/28 07:11:22;;;;;;;34.78;14.52;;;;;;;;;;5065032;28;20053;-65
2021/12/28 07:13:49;;;;;;;33.30;13.40;;;;;;;;;;5066023;28;20131;-65
2021/12/28 07:16:21;;;;;;;28.25;13.45;;;;;;;;;;5060027;28;20468;-65
2021/12/28 07:18:48;;;;;;;31.13;13.18;;;;;;;;;;5063869;28;20052;-65
2021/12/28 07:21:15;;;;;;;26.63;14.02;;;;;;;;;;5061294;28;20068;-65
2021/12/28 07:23:44;;;;;;;32.70;14.60;;;;;;;;;;5062638;28;20087;-65
2021/12/28 07:26:10;;;;;;;28.13;12.68;;;;;;;;;;5069489;28;20075;-66
2021/12/28 07:28:37;;;;;;;30.00;13.95;;;;;;;;;;5067502;28;20045;-66
2021/12/28 07:31:10;;;;;;;25.90;11.63;;;;;;;;;;5068057;28;20076;-65
2021/12/28 07:33:37;;;;;;;33.70;13.57;;;;;;;;;;5065695;28;20036;-65
2021/12/28 07:36:04;;;;;;;19.35;10.77;;;;;;;;;;5059045;28;20053;-66
2021/12/28 07:38:30;;;;;;;23.83;11.57;;;;;;;;;;5066829;28;20712;-66
2021/12/28 07:40:56;;;;;;;33.42;13.80;;;;;;;;;;5065839;28;20572;-65
2021/12/28 07:43:23;;;;;;;32.85;14.40;;;;;;;;;;5065131;28;20044;-65
2021/12/28 07:45:56;;;;;;;30.77;13.93;;;;;;;;;;5068584;28;20144;-65
2021/12/28 07:48:23;;;;;;;33.45;15.07;;;;;;;;;;5062692;28;20072;-66
2021/12/28 07:50:49;;;;;;;34.15;14.40;;;;;;;;;;5066631;28;20131;-65
2021/12/28 07:53:22;;;;;;;34.30;14.25;;;;;;;;;;5065941;28;20127;-65
2021/12/28 07:55:57;;;;;;;30.75;15.70;;;;;;;;;;5062211;28;20477;-65
2021/12/28 07:58:30;;;;;;;33.22;14.90;;;;;;;;;;5066190;28;20136;-65
2021/12/28 08:00:57;;;;;;;33.97;14.48;;;;;;;;;;5069116;28;20139;-65
2021/12/28 08:03:24;;;;;;;25.55;11.10;;;;;;;;;;5066584;28;20069;-66
2021/12/28 08:05:53;;;;;;;32.63;14.52;;;;;;;;;;5066081;28;20135;-66
2021/12/28 08:08:20;;;;;;;34.40;14.73;;;;;;;;;;5063766;28;20068;-66
2021/12/28 08:10:47;;;;;;;26.52;11.90;;;;;;;;;;5063424;28;20076;-66
2021/12/28 08:13:14;;;;;;;32.05;15.35;;;;;;;;;;5057852;28;20072;-66
2021/12/28 08:15:40;;;;;;;32.10;15.02;;;;;;;;;;5060307;28;20127;-66
2021/12/28 08:18:09;;;;;;;27.85;13.75;;;;;;;;;;5064173;28;20073;-65
2021/12/28 08:20:42;;;;;;;32.15;14.70;;;;;;;;;;5060189;28;20140;-65
2021/12/28 08:23:09;;;;;;;33.53;14.82;;;;;;;;;;5066866;28;20817;-65
2021/12/28 08:25:35;;;;;;;32.35;14.10;;;;;;;;;;5058117;28;20079;-66
2021/12/28 08:28:04;;;;;;;29.75;14.20;;;;;;;;;;5059784;28;20446;-66
2021/12/28 08:30:31;;;;;;;34.67;16.60;;;;;;;;;;5057464;28;20088;-65
2021/12/28 08:32:58;;;;;;;32.83;15.93;;;;;;;;;;5063441;28;20466;-66
2021/12/28 08:35:26;;;;;;;29.17;14.85;;;;;;;;;;5060556;28;20536;-66
2021/12/28 08:37:52;;;;;;;33.47;15.82;;;;;;;;;;5059078;28;20178;-66
2021/12/28 08:40:20;;;;;;;33.70;15.70;;;;;;;;;;5062029;28;20186;-66
2021/12/28 08:42:48;;;;;;;28.90;13.90;;;;;;;;;;5062526;28;20067;-66
2021/12/28 08:45:14;;;;;;;34.90;15.77;;;;;;;;;;5059545;28;20088;-66
2021/12/28 08:47:41;;;;;;;37.00;14.77;;;;;;;;;;5063036;28;20086;-66
2021/12/28 08:50:08;;;;;;;37.43;15.53;;;;;;;;;;5060752;28;20140;-66
2021/12/28 08:52:35;;;;;;;30.95;13.07;;;;;;;;;;5060062;28;21306;-66
2021/12/28 08:55:04;;;;;;;32.85;15.70;;;;;;;;;;5061046;27;20501;-66
2021/12/28 08:57:31;;;;;;;32.92;15.43;;;;;;;;;;5061278;28;20132;-66
2021/12/28 08:59:57;;;;;;;36.38;16.25;;;;;;;;;;5055430;28;20080;-66
2021/12/28 09:02:24;;;;;;;37.63;16.05;;;;;;;;;;5060228;28;20116;-66
2021/12/28 09:04:50;;;;;;;36.45;15.20;;;;;;;;;;5057674;28;20082;-66
2021/12/28 09:07:17;;;;;;;35.95;16.05;;;;;;;;;;5059951;28;20543;-66
2021/12/28 09:09:44;;;;;;;34.00;16.00;;;;;;;;;;5057890;28;20111;-66
2021/12/28 09:12:17;;;;;;;33.92;15.50;;;;;;;;;;5059920;28;20163;-66
2021/12/28 09:14:44;;;;;;;34.53;16.67;;;;;;;;;;5058343;28;20203;-66
2021/12/28 09:17:10;;;;;;;39.15;16.23;;;;;;;;;;5058299;28;20080;-66
2021/12/28 09:19:43;;;;;;;26.77;13.00;;;;;;;;;;5054957;28;20059;-66
2021/12/28 09:22:10;;;;;;;33.08;13.18;;;;;;;;;;5055322;28;20120;-65
2021/12/28 09:24:37;;;;;;;32.53;15.25;;;;;;;;;;5055295;28;20095;-66
2021/12/28 09:27:11;;;;;;;35.17;15.35;;;;;;;;;;5058643;28;20044;-66
2021/12/28 09:29:42;;;;;;;31.75;14.82;;;;;;;;;;5056654;28;20460;-66
2021/12/28 09:32:15;;;;;;;27.73;12.63;;;;;;;;;;5056762;28;20041;-65
2021/12/28 09:34:42;;;;;;;36.35;16.20;;;;;;;;;;5065714;28;20139;-65
2021/12/28 09:37:08;;;;;;;32.30;14.77;;;;;;;;;;5055789;28;20496;-66
2021/12/28 09:39:35;;;;;;;36.08;14.90;;;;;;;;;;5053892;28;20691;-66
2021/12/28 09:42:02;;;;;;;35.73;16.03;;;;;;;;;;5054346;28;20067;-66
2021/12/28 09:44:31;;;;;;;33.63;16.52;;;;;;;;;;5056796;28;20338;-66
2021/12/28 09:46:58;;;;;;;37.70;15.82;;;;;;;;;;5055683;28;20048;-66
2021/12/28 09:49:27;;;;;;;35.38;14.80;;;;;;;;;;5054204;28;20045;-66
2021/12/28 09:51:55;;;;;;;34.38;15.82;;;;;;;;;;5040380;28;20467;-66
2021/12/28 09:54:21;;;;;;;;;;;;;;;;;;5058127;28;20063;-66
2021/12/28 09:56:48;;;;;;;32.92;15.02;;;;;;;;;;5058932;28;19982;-66
2021/12/28 09:59:14;;;;;;;33.63;14.40;;;;;;;;;;5062063;28;20548;-66
2021/12/28 10:01:41;;;;;;;37.28;15.65;;;;;;;;;;5056164;28;20079;-66
2021/12/28 10:04:08;;;;;;;25.80;11.80;;;;;;;;;;5054955;28;20419;-66
2021/12/28 10:06:34;;;;;;;32.97;13.77;;;;;;;;;;5053934;28;20167;-66
2021/12/28 10:09:17;;;;;;;35.63;16.33;;;;;;;;;;5053659;28;20059;-66
2021/12/28 10:11:48;;;;;;;38.80;17.70;;;;;;;;;;5058415;28;20051;-66
2021/12/28 10:14:15;;;;;;;34.80;16.80;;;;;;;;;;5060488;28;20099;-67
2021/12/28 10:16:47;;;;;;;35.05;16.50;;;;;;;;;;5067578;28;20044;-67
2021/12/28 10:19:35;;;;;;;34.88;16.52;;;;;;;;;;5059731;28;20084;-67
2021/12/28 10:22:20;;;;;;;35.47;16.80;;;;;;;;;;5056423;28;20601;-67
2021/12/28 10:24:49;;;;;;;38.40;16.55;;;;;;;;;;5051777;28;20500;-67
2021/12/28 10:27:16;;;;;;;38.83;17.80;;;;;;;;;;5055566;28;20083;-67
2021/12/28 10:29:43;;;;;;;42.95;18.52;;;;;;;;;;5054374;28;20046;-67
2021/12/28 10:32:16;;;;;;;40.05;17.83;;;;;;;;;;5053377;28;20091;-67
2021/12/28 10:34:44;;;;;;;36.53;15.52;;;;;;;;;;5054338;28;20048;-67
2021/12/28 10:37:18;;;;;;;33.75;16.98;;;;;;;;;;5055057;28;20139;-67
2021/12/28 10:39:45;;;;;;;36.15;17.77;;;;;;;;;;5055753;28;20139;-67
2021/12/28 10:42:11;;;;;;;;;;;;;;;;;;5059283;28;20079;-67
2021/12/28 10:44:57;;;;;;;36.30;16.77;;;;;;;;;;5057841;28;20431;-67
2021/12/28 10:47:33;;;;;;;40.90;17.40;;;;;;;;;;5055183;28;20052;-67
2021/12/28 10:50:07;;;;;;;40.03;17.85;;;;;;;;;;5061660;28;20131;-66
2021/12/28 10:52:39;;;;;;;43.17;19.38;;;;;;;;;;5062086;28;20136;-67
2021/12/28 10:55:22;;;;;;;43.22;17.63;;;;;;;;;;5062575;28;20067;-66
2021/12/28 10:57:49;;;;;;;42.30;17.92;;;;;;;;;;5058544;28;20076;-67
2021/12/28 11:00:50;;;;;;;39.67;18.33;;;;;;;;;;5056273;28;20055;-67
2021/12/28 11:03:17;;;;;;;;;;;;;;;;;;5037149;28;20092;-67
2021/12/28 11:05:44;;;;;;;38.35;17.80;;;;;;;;;;5078927;28;19920;-67
2021/12/28 11:08:11;;;;;;;38.85;17.60;;;;;;;;;;5076537;28;20135;-67
2021/12/28 11:10:46;;;;;;;43.13;19.48;;;;;;;;;;5064341;28;20457;-67
2021/12/28 11:13:13;;;;;;;42.50;19.27;;;;;;;;;;5060813;28;20072;-67
2021/12/28 11:15:40;;;;;;;41.83;18.42;;;;;;;;;;5058983;28;20124;-67
2021/12/28 11:18:17;;;;;;;47.47;19.25;;;;;;;;;;5060119;28;20061;-67
2021/12/28 11:20:43;;;;;;;38.55;19.17;;;;;;;;;;5061595;28;20076;-67
2021/12/28 11:23:11;;;;;;;43.22;19.05;;;;;;;;;;5056881;28;20504;-67
2021/12/28 11:25:38;;;;;;;47.13;20.00;;;;;;;;;;5060443;28;20128;-67
2021/12/28 11:28:18;;;;;;;43.80;18.25;;;;;;;;;;5059278;28;20136;-67
2021/12/28 11:30:57;;;;;;;40.25;19.40;;;;;;;;;;5059972;28;20088;-67
2021/12/28 11:33:23;;;;;;;39.80;18.00;;;;;;;;;;5057533;28;20049;-67
2021/12/28 11:35:50;;;;;;;39.60;18.00;;;;;;;;;;5057086;28;20120;-67
2021/12/28 11:38:16;;;;;;;41.15;18.35;;;;;;;;;;5058476;28;20080;-67
2021/12/28 11:40:42;;;;;;;33.78;16.10;;;;;;;;;;5055775;28;20091;-67
2021/12/28 11:43:09;;;;;;;43.13;17.80;;;;;;;;;;5059809;28;20080;-67
2021/12/28 11:45:35;;;;;;;30.60;15.35;;;;;;;;;;5057727;28;20088;-67
2021/12/28 11:48:02;;;;;;;37.67;17.60;;;;;;;;;;5059691;28;20513;-67
2021/12/28 11:50:28;;;;;;;34.40;15.32;;;;;;;;;;5063113;28;20037;-67
2021/12/28 11:52:55;;;;;;;38.20;17.05;;;;;;;;;;5061464;28;20524;-67
2021/12/28 11:55:21;;;;;;;39.40;16.83;;;;;;;;;;5053629;28;20092;-67
2021/12/28 11:57:49;;;;;;;35.28;17.98;;;;;;;;;;5041300;28;20132;-67
2021/12/28 12:00:17;;;;;;;36.97;17.95;;;;;;;;;;5043658;28;20128;-67
2021/12/28 12:02:49;;;;;;;44.42;19.25;;;;;;;;;;5037709;28;20076;-67
2021/12/28 12:05:18;;;;;;;41.95;18.90;;;;;;;;;;5039126;28;20041;-68
2021/12/28 12:07:45;;;;;;;40.97;19.38;;;;;;;;;;5039445;28;20136;-67
2021/12/28 12:10:13;;;;;;;33.42;15.38;;;;;;;;;;5038530;28;20128;-67
2021/12/28 12:12:42;;;;;;;38.25;18.70;;;;;;;;;;5038447;28;20782;-67
2021/12/28 12:15:14;;;;;;;39.03;18.25;;;;;;;;;;5035733;28;20064;-67
2021/12/28 12:17:43;;;;;;;39.22;19.40;;;;;;;;;;5038664;28;20051;-67
2021/12/28 12:20:16;;;;;;;44.20;20.08;;;;;;;;;;5038432;28;20139;-67
2021/12/28 12:22:43;;;;;;;45.63;18.50;;;;;;;;;;5037801;28;20534;-67
2021/12/28 12:25:11;;;;;;;40.10;19.00;;;;;;;;;;5037289;28;20099;-67
2021/12/28 12:27:41;;;;;;;44.00;20.08;;;;;;;;;;5038403;28;20068;-67
2021/12/28 12:30:16;;;;;;;44.78;20.48;;;;;;;;;;5038623;28;20163;-67
2021/12/28 12:32:55;;;;;;;43.78;20.40;;;;;;;;;;5038199;28;20061;-67
2021/12/28 12:35:31;;;;;;;43.63;21.20;;;;;;;;;;5037702;28;20167;-67
2021/12/28 12:38:02;;;;;;;45.38;19.60;;;;;;;;;;5040754;28;20124;-67
2021/12/28 12:40:47;;;;;;;41.95;19.80;;;;;;;;;;5041736;28;20145;-67
2021/12/28 12:43:14;;;;;;;43.17;19.63;;;;;;;;;;5039308;28;20057;-67
2021/12/28 12:45:52;;;;;;;38.58;18.70;;;;;;;;;;5039979;28;20096;-67
2021/12/28 12:48:31;;;;;;;41.80;19.80;;;;;;;;;;5037042;28;20112;-67
2021/12/28 12:51:22;;;;;;;42.05;20.05;;;;;;;;;;5031170;28;20093;-67
2021/12/28 12:53:54;;;;;;;44.28;19.95;;;;;;;;;;5034016;28;20207;-67
2021/12/28 12:56:43;;;;;;;38.13;18.85;;;;;;;;;;5040101;28;20088;-67
2021/12/28 12:59:32;;;;;;;46.97;20.90;;;;;;;;;;5046274;28;20136;-67
2021/12/28 13:02:07;;;;;;;42.88;20.65;;;;;;;;;;5034604;28;20103;-67
2021/12/28 13:04:34;;;;;;;44.90;20.42;;;;;;;;;;5044572;28;20048;-67
2021/12/28 13:07:07;;;;;;;46.72;20.00;;;;;;;;;;5047221;28;20064;-67
2021/12/28 13:10:01;;;;;;;46.63;21.25;;;;;;;;;;5044385;28;20079;-66
2021/12/28 13:12:28;;;;;;;47.22;22.00;;;;;;;;;;5049798;28;20139;-67
2021/12/28 13:14:55;;;;;;;44.95;20.65;;;;;;;;;;5047997;28;20052;-67
2021/12/28 13:17:23;;;;;;;54.35;24.00;;;;;;;;;;5046266;28;20133;-67
2021/12/28 13:20:08;;;;;;;45.55;22.10;;;;;;;;;;5046025;28;20044;-67
2021/12/28 13:22:44;;;;;;;49.05;21.02;;;;;;;;;;5043745;28;20077;-66
2021/12/28 13:25:18;;;;;;;46.88;21.02;;;;;;;;;;5049759;28;20603;-67
2021/12/28 13:27:45;;;;;;;48.83;21.38;;;;;;;;;;5045304;28;20121;-67
2021/12/28 13:30:14;;;;;;;46.97;21.13;;;;;;;;;;5046957;28;20560;-66
2021/12/28 13:33:01;;;;;;;52.88;22.63;;;;;;;;;;5047569;28;20053;-67
2021/12/28 13:35:31;;;;;;;57.90;22.90;;;;;;;;;;5047140;28;20052;-66
2021/12/28 13:38:03;;;;;;;47.95;21.90;;;;;;;;;;5042785;28;20085;-66
2021/12/28 13:40:31;;;;;;;50.83;21.92;;;;;;;;;;5040422;28;20183;-66
2021/12/28 13:42:58;;;;;;;48.42;22.08;;;;;;;;;;5045836;28;20073;-66
2021/12/28 13:45:30;;;;;;;50.65;21.02;;;;;;;;;;5028722;28;20076;-66
2021/12/28 13:48:24;;;;;;;48.78;21.88;;;;;;;;;;5046873;28;20048;-66
2021/12/28 13:50:55;;;;;;;54.47;21.40;;;;;;;;;;5042330;28;20168;-66
2021/12/28 13:53:30;;;;;;;39.65;17.30;;;;;;;;;;5043509;28;20102;-66
2021/12/28 13:56:04;;;;;;;46.75;20.73;;;;;;;;;;5052113;28;20140;-66
2021/12/28 13:58:44;;;;;;;54.17;22.27;;;;;;;;;;5061102;28;20131;-67
2021/12/28 14:01:11;;;;;;;51.53;22.88;;;;;;;;;;5058132;28;20128;-66
2021/12/28 14:03:39;;;;;;;53.53;22.58;;;;;;;;;;5054109;28;20072;-67
2021/12/28 14:06:06;;;;;;;56.08;22.17;;;;;;;;;;5060723;28;20045;-66
2021/12/28 14:08:32;;;;;;;51.95;21.52;;;;;;;;;;5061401;28;20127;-66
2021/12/28 14:11:05;;;;;;;56.25;23.63;;;;;;;;;;5060588;28;20122;-66
2021/12/28 14:13:33;;;;;;;53.75;22.67;;;;;;;;;;5056940;28;20483;-66
2021/12/28 14:16:10;;;;;;;55.20;22.10;;;;;;;;;;5076641;28;20496;-66
2021/12/28 14:18:47;;;;;;;52.85;22.23;;;;;;;;;;5078074;28;20052;-66
2021/12/28 14:21:13;;;;;;;60.95;22.48;;;;;;;;;;5076329;28;20560;-66
2021/12/28 14:23:40;;;;;;;57.63;23.10;;;;;;;;;;5078912;28;20079;-67
2021/12/28 14:26:11;;;;;;;58.28;23.00;;;;;;;;;;5077309;28;20052;-67
2021/12/28 14:29:00;;;;;;;54.95;22.42;;;;;;;;;;5085439;28;20060;-67
2021/12/28 14:31:35;;;;;;;58.10;22.60;;;;;;;;;;5076863;28;20476;-67
2021/12/28 14:34:02;;;;;;;60.42;23.60;;;;;;;;;;5079365;28;20113;-66
2021/12/28 14:36:30;;;;;;;68.32;25.05;;;;;;;;;;5075510;28;20127;-67